Alexandria, Louisiana
Current Conditions -  °F | °C
As of 1:53 PM on Tuesday 21 Oct 2014 (Local Time) from KAEX Reporting Station
Clear Clear  
Wind Chill: 80°   Ceiling: Unl
Heat Index: 81°   Visibility: 10mi
Dew Point: 60°   Wind: 9mph
Humidity: 50%   Direction: 70°ENE
Pressure: 30.02"   Gusts: NA
Location:  31.31°N, 92.44°W
Report Text: KAEX 211853Z 07008KT 10SM CLR 27/16 A3002 RMK AO2 SLP169 T02670156
Loading
Personal Weather Stations






























Interactive Weather Map
Tropical Storm Tracking
New forecast layout! Learn more

10-Day Weather Forecast

Advertisements
Track Severe Weather on mobile